Time;durP1;ratioP1;P1;durP2;ratioP2;P2;SDS_P1;SDS_P2;PMS_P1;PMS_P2;Temp;Humidity;BMP_temperature;BMP_pressure;BME280_temperature;BME280_humidity;BME280_pressure;Samples;Min_cycle;Max_cycle;Signal;HPM_P1;HPM_P2
2021/07/27 00:00:46;;;;;;;13.40;10.90;;;;;;;18.68;95.64;100426.59;5074059;28;20178;-69
2021/07/27 00:03:11;;;;;;;12.97;11.27;;;;;;;18.64;95.85;100424.34;5074856;28;20203;-69
2021/07/27 00:05:37;;;;;;;17.27;11.40;;;;;;;18.63;96.17;100425.34;5073629;28;20206;-69
2021/07/27 00:08:02;;;;;;;13.53;11.03;;;;;;;18.58;96.25;100427.56;5073684;28;20623;-69
2021/07/27 00:10:28;;;;;;;13.13;11.30;;;;;;;18.58;97.48;100414.03;5074881;28;20730;-69
2021/07/27 00:12:54;;;;;;;15.33;10.03;;;;;;;18.58;97.93;100419.44;5074830;28;20203;-68
2021/07/27 00:15:19;;;;;;;11.57;10.37;;;;;;;18.57;97.70;100420.44;5075027;28;20179;-67
2021/07/27 00:17:44;;;;;;;13.00;11.70;;;;;;;18.53;97.54;100410.91;5075169;28;20260;-67
2021/07/27 00:20:10;;;;;;;13.40;11.37;;;;;;;18.47;97.67;100403.38;5074864;28;20210;-68
2021/07/27 00:22:39;;;;;;;12.83;11.10;;;;;;;18.49;98.24;100401.38;5074342;28;20202;-68
2021/07/27 00:25:05;;;;;;;13.00;10.77;;;;;;;18.48;97.39;100396.97;5074756;28;20210;-68
2021/07/27 00:27:33;;;;;;;12.33;10.83;;;;;;;18.42;97.65;100396.56;5074310;28;20256;-68
2021/07/27 00:29:59;;;;;;;11.43;10.03;;;;;;;18.36;97.86;100397.13;5074465;28;20194;-68
2021/07/27 00:32:24;;;;;;;14.03;11.60;;;;;;;18.30;98.85;100402.25;5074172;28;20690;-68
2021/07/27 00:34:53;;;;;;;12.87;11.27;;;;;;;18.21;99.78;100403.94;5072941;28;20179;-68
2021/07/27 00:37:20;;;;;;;13.43;11.30;;;;;;;18.18;99.33;100406.91;5073397;28;20335;-68
2021/07/27 00:39:46;;;;;;;17.13;11.83;;;;;;;18.12;99.39;100404.75;5089923;28;20175;-68
2021/07/27 00:42:14;;;;;;;13.47;11.67;;;;;;;18.00;99.88;100398.66;5073954;28;20264;-69
2021/07/27 00:44:39;;;;;;;12.60;11.30;;;;;;;17.94;100.00;100410.00;5074030;28;20262;-68
2021/07/27 00:47:05;;;;;;;17.57;12.07;;;;;;;17.89;100.00;100408.72;5072676;28;20600;-69
2021/07/27 00:49:30;;;;;;;15.47;13.77;;;;;;;17.84;100.00;100421.75;5074664;28;20520;-68
2021/07/27 00:51:55;;;;;;;14.53;13.13;;;;;;;17.91;100.00;100414.81;5073730;28;20191;-69
2021/07/27 00:54:21;;;;;;;16.83;13.00;;;;;;;17.98;100.00;100405.19;5074265;28;20244;-68
2021/07/27 00:56:46;;;;;;;18.33;14.07;;;;;;;17.99;100.00;100410.44;5072432;28;20206;-68
2021/07/27 00:59:12;;;;;;;15.33;11.63;;;;;;;18.02;100.00;100403.91;5073661;28;20240;-68
2021/07/27 01:01:37;;;;;;;13.67;12.20;;;;;;;18.07;100.00;100413.28;5073523;28;20198;-68
2021/07/27 01:04:02;;;;;;;15.03;13.43;;;;;;;18.12;100.00;100405.63;5073622;28;20171;-68
2021/07/27 01:06:28;;;;;;;12.83;11.53;;;;;;;18.12;100.00;100408.31;5072808;28;20179;-68
2021/07/27 01:08:53;;;;;;;11.47;9.43;;;;;;;18.10;99.03;100393.25;5073778;28;20555;-68
2021/07/27 01:11:25;;;;;;;12.73;9.63;;;;;;;18.11;98.53;100392.25;5072307;28;20194;-68
2021/07/27 01:13:51;;;;;;;10.90;8.97;;;;;;;18.10;98.97;100387.84;5073780;28;20221;-68
2021/07/27 01:16:17;;;;;;;11.87;9.20;;;;;;;18.09;98.72;100383.44;5072260;28;20194;-70
2021/07/27 01:18:57;;;;;;;15.03;9.37;;;;;;;18.14;99.49;100386.56;5072178;28;20193;-69
2021/07/27 01:37:55;;;;;;;9.73;8.80;;;;;;;18.18;100.00;100379.91;5073093;28;20252;-69
2021/07/27 01:40:23;;;;;;;9.50;8.47;;;;;;;18.17;100.00;100374.63;5073363;28;20164;-69
2021/07/27 01:42:49;;;;;;;9.77;8.73;;;;;;;18.13;100.00;100374.06;5071676;28;20635;-69
2021/07/27 01:45:16;;;;;;;12.93;8.57;;;;;;;18.08;100.00;100370.94;5073024;28;20213;-69
2021/07/27 01:47:41;;;;;;;10.97;9.73;;;;;;;18.00;100.00;100373.50;5072203;28;20223;-69
2021/07/27 01:50:07;;;;;;;12.00;10.47;;;;;;;17.94;100.00;100387.56;5073040;28;20633;-69
2021/07/27 01:52:32;;;;;;;12.93;11.13;;;;;;;17.86;99.74;100387.41;5072178;28;20225;-69
2021/07/27 01:54:57;;;;;;;14.63;11.80;;;;;;;17.77;99.41;100384.50;5071628;28;20183;-69
2021/07/27 01:57:26;;;;;;;12.37;10.87;;;;;;;17.73;99.14;100388.47;5073117;28;20190;-69
2021/07/27 01:59:58;;;;;;;10.70;9.60;;;;;;;17.76;99.74;100382.81;5091934;28;20190;-69
2021/07/27 02:02:23;;;;;;;10.67;8.20;;;;;;;17.78;99.23;100382.66;5077962;28;20194;-69
2021/07/27 02:04:48;;;;;;;9.77;7.67;;;;;;;17.83;98.41;100384.94;5083444;28;20232;-69
2021/07/27 02:07:14;;;;;;;8.77;6.40;;;;;;;17.88;97.30;100396.22;5084094;28;20183;-69
2021/07/27 02:09:42;;;;;;;10.23;6.83;;;;;;;17.93;97.17;100389.41;5076954;28;20183;-69
2021/07/27 02:12:16;;;;;;;10.57;6.83;;;;;;;17.93;97.09;100389.41;5072890;28;20259;-69
2021/07/27 02:17:24;;;;;;;7.60;6.90;;;;;;;17.88;97.96;100401.59;5073049;28;20185;-69
2021/07/27 02:19:50;;;;;;;9.93;6.83;;;;;;;17.90;98.09;100392.38;5071618;28;20186;-69
2021/07/27 02:22:17;;;;;;;11.43;7.50;;;;;;;17.90;98.07;100395.06;5072640;28;20198;-69
2021/07/27 02:24:45;;;;;;;15.70;9.03;;;;;;;17.91;97.85;100404.03;5072995;28;20179;-69
2021/07/27 02:27:11;;;;;;;11.97;8.00;;;;;;;17.88;97.85;100391.66;5071740;28;20321;-69
2021/07/27 02:29:36;;;;;;;8.77;7.87;;;;;;;17.85;97.35;100404.59;5072663;28;20214;-69
2021/07/27 02:32:02;;;;;;;9.23;8.17;;;;;;;17.86;98.01;100400.91;5071308;28;20194;-69
2021/07/27 02:34:31;;;;;;;8.17;6.47;;;;;;;17.90;98.49;100394.22;5072927;28;20206;-69
2021/07/27 02:36:57;;;;;;;11.40;6.47;;;;;;;17.94;98.70;100398.34;5072753;28;20270;-68
2021/07/27 02:39:22;;;;;;;8.93;6.10;;;;;;;18.00;98.26;100395.09;5071354;28;20258;-69
2021/07/27 02:41:47;;;;;;;6.83;6.00;;;;;;;18.04;97.71;100393.81;5072441;28;20191;-69
2021/07/27 02:44:12;;;;;;;9.30;6.27;;;;;;;18.05;96.36;100390.97;5073848;28;20181;-69
2021/07/27 02:46:38;;;;;;;9.07;6.60;;;;;;;17.99;95.50;100399.63;5076865;28;20187;-69
2021/07/27 02:49:03;;;;;;;8.63;6.37;;;;;;;17.90;95.04;100386.97;5075009;28;20635;-69
2021/07/27 02:51:29;;;;;;;7.43;6.27;;;;;;;17.88;95.48;100391.66;5075072;28;20205;-69
2021/07/27 02:53:54;;;;;;;8.00;7.00;;;;;;;17.93;95.33;100393.94;5075347;28;20192;-69
2021/07/27 02:56:20;;;;;;;7.60;6.50;;;;;;;17.94;95.32;100391.09;5076345;28;20175;-69
2021/07/27 02:58:45;;;;;;;9.20;6.50;;;;;;;17.91;95.45;100385.13;5076333;28;20191;-69
2021/07/27 03:01:11;;;;;;;9.63;5.63;;;;;;;17.93;94.64;100391.25;5076030;28;20178;-69
2021/07/27 03:03:36;;;;;;;11.17;7.00;;;;;;;17.94;94.61;100390.25;5074796;28;20203;-69
2021/07/27 03:06:02;;;;;;;8.60;6.47;;;;;;;17.86;94.76;100396.34;5075952;28;20607;-69
2021/07/27 03:08:48;;;;;;;7.33;6.63;;;;;;;17.83;95.64;100401.13;5076482;28;20171;-69
2021/07/27 03:11:14;;;;;;;8.17;6.93;;;;;;;17.65;97.23;100399.09;5076044;28;20523;-68
2021/07/27 03:13:40;;;;;;;9.93;6.73;;;;;;;17.59;97.48;100396.09;5075701;28;20198;-68
2021/07/27 03:16:06;;;;;;;8.23;6.90;;;;;;;17.57;97.24;100398.06;5076150;28;20179;-68
2021/07/27 03:18:31;;;;;;;9.50;7.23;;;;;;;17.48;97.17;100395.19;5075807;28;20282;-68
2021/07/27 03:20:56;;;;;;;10.97;6.97;;;;;;;17.52;97.21;100389.53;5076365;28;20202;-68
2021/07/27 03:23:26;;;;;;;7.17;6.47;;;;;;;17.52;97.65;100385.00;5075830;28;20202;-68
2021/07/27 03:25:51;;;;;;;9.43;6.83;;;;;;;17.57;96.94;100388.13;5075614;28;20643;-68
2021/07/27 03:28:17;;;;;;;10.90;6.50;;;;;;;17.58;96.50;100388.97;5074430;28;20174;-68
2021/07/27 03:30:42;;;;;;;9.23;6.97;;;;;;;17.62;96.53;100391.25;5075565;28;20651;-68
2021/07/27 03:33:08;;;;;;;10.00;6.50;;;;;;;17.68;97.19;100376.41;5076555;28;20205;-68
2021/07/27 03:35:33;;;;;;;9.00;6.70;;;;;;;17.73;96.77;100380.38;5075666;28;20175;-68
2021/07/27 03:37:58;;;;;;;11.03;6.27;;;;;;;17.80;96.49;100384.22;5075316;28;20190;-68
2021/07/27 03:40:24;;;;;;;8.23;6.07;;;;;;;17.85;95.98;100374.91;5075568;28;20186;-68
2021/07/27 03:42:49;;;;;;;10.47;6.23;;;;;;;18.00;95.89;100378.88;5075459;28;20207;-68
2021/07/27 03:45:14;;;;;;;7.00;6.37;;;;;;;18.04;95.61;100385.72;5075459;28;20705;-68
2021/07/27 03:47:39;;;;;;;7.70;5.97;;;;;;;18.14;94.58;100381.19;5074228;28;20190;-68
2021/07/27 03:50:10;;;;;;;7.97;6.23;;;;;;;18.14;95.03;100375.78;5074094;28;20182;-68
2021/07/27 03:52:35;;;;;;;6.57;5.97;;;;;;;18.30;94.01;100375.22;5074044;28;20194;-69
2021/07/27 03:55:00;;;;;;;7.17;5.70;;;;;;;18.35;93.40;100372.97;5075110;28;20183;-68
2021/07/27 03:57:26;;;;;;;7.33;6.17;;;;;;;18.48;92.33;100378.06;5074407;28;20233;-68
2021/07/27 03:59:51;;;;;;;8.03;5.87;;;;;;;18.54;91.99;100378.34;5075020;28;20179;-68
2021/07/27 04:02:16;;;;;;;6.90;5.13;;;;;;;18.63;91.58;100380.25;5075038;28;20199;-67
2021/07/27 04:04:42;;;;;;;8.13;5.40;;;;;;;18.71;91.10;100384.91;5075403;28;20181;-68
2021/07/27 04:07:07;;;;;;;6.77;5.43;;;;;;;18.66;91.66;100376.41;5073783;28;20179;-69
2021/07/27 04:09:32;;;;;;;9.80;5.43;;;;;;;18.64;91.47;100376.53;5075100;28;20186;-69
2021/07/27 04:11:58;;;;;;;7.03;5.90;;;;;;;18.62;91.78;100383.94;5096277;22;20214;-68
2021/07/27 04:14:23;;;;;;;10.50;5.80;;;;;;;18.64;91.54;100375.69;5075433;28;20179;-68
2021/07/27 04:16:48;;;;;;;9.60;6.00;;;;;;;18.59;91.59;100375.22;5090607;28;20178;-68
2021/07/27 04:19:14;;;;;;;11.23;5.80;;;;;;;18.45;92.36;100384.59;5090570;28;20182;-69
2021/07/27 04:21:43;;;;;;;7.97;5.93;;;;;;;18.46;92.66;100385.47;5074977;28;20517;-68
2021/07/27 04:24:08;;;;;;;8.83;6.40;;;;;;;18.40;93.00;100387.75;5053367;28;20174;-68
2021/07/27 04:26:34;;;;;;;9.63;6.30;;;;;;;18.49;92.53;100388.72;5054890;28;20172;-68
2021/07/27 04:28:59;;;;;;;11.60;5.80;;;;;;;18.47;92.69;100397.97;5054878;28;20179;-68
2021/07/27 04:31:24;;;;;;;7.80;5.97;;;;;;;18.44;92.93;100397.25;5053167;28;20187;-68
2021/07/27 04:33:50;;;;;;;8.07;6.07;;;;;;;18.76;90.67;100404.25;5053265;28;20230;-69
2021/07/27 04:36:15;;;;;;;10.77;7.00;;;;;;;19.00;89.57;100414.63;5070470;28;20179;-69
2021/07/27 04:38:40;;;;;;;10.13;7.40;;;;;;;19.20;89.04;100429.78;5054378;28;20552;-68
2021/07/27 04:41:06;;;;;;;10.87;6.83;;;;;;;19.28;88.99;100423.66;5054282;28;20229;-69
2021/07/27 04:43:32;;;;;;;8.77;6.50;;;;;;;19.15;90.28;100418.56;5054424;28;20219;-69
2021/07/27 04:45:58;;;;;;;10.63;6.40;;;;;;;19.19;89.56;100416.41;5053063;28;20168;-68
2021/07/27 04:48:24;;;;;;;8.97;6.13;;;;;;;19.23;88.97;100407.00;5054233;28;20171;-69
2021/07/27 04:50:49;;;;;;;9.33;7.13;;;;;;;19.28;89.11;100404.72;5054039;28;20198;-68
2021/07/27 04:53:21;;;;;;;8.03;6.50;;;;;;;19.14;89.65;100410.59;5053985;28;20195;-69
2021/07/27 04:55:46;;;;;;;10.13;6.87;;;;;;;19.25;89.54;100407.72;5069053;28;20167;-69
2021/07/27 04:58:11;;;;;;;7.33;6.50;;;;;;;19.30;89.20;100411.69;5053967;28;20188;-68
2021/07/27 05:00:36;;;;;;;8.87;6.80;;;;;;;19.12;90.55;100409.91;5054461;28;20175;-68
2021/07/27 05:03:02;;;;;;;9.90;7.43;;;;;;;19.34;89.49;100414.97;5069397;28;20197;-69
2021/07/27 05:05:27;;;;;;;14.07;7.27;;;;;;;19.03;91.78;100412.47;5052527;28;20176;-69
2021/07/27 05:07:52;;;;;;;12.13;7.70;;;;;;;18.98;92.49;100416.63;5068973;28;20174;-69
2021/07/27 05:10:18;;;;;;;11.87;8.20;;;;;;;19.24;91.83;100416.81;5069151;28;20180;-69
2021/07/27 05:12:44;;;;;;;10.80;6.90;;;;;;;19.25;91.13;100419.38;5052234;28;20199;-69
2021/07/27 05:15:09;;;;;;;14.60;8.37;;;;;;;19.33;90.12;100419.53;5053664;28;20171;-69
2021/07/27 05:17:35;;;;;;;8.63;7.20;;;;;;;19.31;89.45;100420.66;5069048;28;20376;-69
2021/07/27 05:20:00;;;;;;;9.43;7.70;;;;;;;19.05;91.69;100413.19;5069249;28;20544;-69
2021/07/27 05:22:25;;;;;;;10.37;7.63;;;;;;;18.97;92.79;100410.38;5053475;28;20195;-69
2021/07/27 05:24:52;;;;;;;9.67;7.80;;;;;;;18.78;94.44;100410.38;5053520;28;20544;-69
2021/07/27 05:27:22;;;;;;;11.73;7.67;;;;;;;18.93;94.04;100419.72;5068775;28;20586;-69
2021/07/27 05:29:48;;;;;;;10.63;7.80;;;;;;;18.98;93.55;100422.88;5052388;28;20645;-69
2021/07/27 05:32:13;;;;;;;9.40;7.47;;;;;;;19.13;91.77;100422.41;5069329;28;20245;-68
2021/07/27 05:34:39;;;;;;;12.10;7.87;;;;;;;19.22;91.52;100419.69;5068837;28;20175;-68
2021/07/27 05:37:04;;;;;;;8.60;7.70;;;;;;;19.33;90.90;100424.09;5069652;28;20544;-68
2021/07/27 05:39:29;;;;;;;8.50;7.60;;;;;;;19.59;88.47;100427.84;5053401;28;20210;-68
2021/07/27 05:41:55;;;;;;;11.40;7.10;;;;;;;19.64;88.65;100433.66;5053705;28;20179;-68
2021/07/27 05:44:24;;;;;;;9.83;8.13;;;;;;;19.63;87.31;100431.97;5053755;28;20171;-67
2021/07/27 05:46:50;;;;;;;12.67;6.17;;;;;;;19.72;85.91;100430.25;5053791;28;20168;-68
2021/07/27 05:49:15;;;;;;;12.93;7.67;;;;;;;19.38;87.66;100424.50;5069446;28;20182;-67
2021/07/27 05:51:41;;;;;;;10.90;8.07;;;;;;;19.64;86.30;100430.97;5054649;28;20179;-69
2021/07/27 05:54:06;;;;;;;15.93;8.00;;;;;;;19.73;85.98;100434.66;5053694;28;20195;-68
2021/07/27 05:56:32;;;;;;;14.93;7.43;;;;;;;19.67;86.17;100433.38;5052625;28;20176;-67
2021/07/27 05:58:57;;;;;;;9.30;7.20;;;;;;;20.02;84.69;100441.75;5053435;28;20198;-67
2021/07/27 06:01:23;;;;;;;9.23;7.03;;;;;;;20.12;82.89;100435.28;5053235;28;20183;-68
2021/07/27 06:03:48;;;;;;;9.53;7.80;;;;;;;20.53;81.02;100441.19;5053114;28;20659;-68
2021/07/27 06:06:13;;;;;;;6.73;5.77;;;;;;;20.55;80.84;100444.59;5068717;28;20175;-68
2021/07/27 06:08:38;;;;;;;8.03;6.60;;;;;;;20.59;80.57;100443.25;5054029;28;20229;-68
2021/07/27 06:11:05;;;;;;;7.83;6.33;;;;;;;20.78;80.39;100445.78;5052862;28;20179;-68
2021/07/27 06:13:31;;;;;;;11.10;6.27;;;;;;;21.16;78.42;100449.16;5068008;28;20207;-68
2021/07/27 06:16:03;;;;;;;8.50;6.47;;;;;;;21.06;77.50;100441.13;5052769;28;20186;-67
2021/07/27 06:18:28;;;;;;;8.93;6.50;;;;;;;20.57;79.82;100448.84;5052905;28;20190;-67
2021/07/27 06:20:54;;;;;;;10.63;7.00;;;;;;;21.15;77.15;100451.00;5057219;28;20171;-67
2021/07/27 06:23:19;;;;;;;7.77;6.97;;;;;;;20.46;80.02;100442.81;5057073;28;20199;-67
2021/07/27 06:25:44;;;;;;;7.27;6.50;;;;;;;20.88;79.42;100445.72;5056850;28;20172;-67
2021/07/27 06:28:10;;;;;;;9.20;6.23;;;;;;;20.91;79.24;100448.97;5072530;28;20178;-67
2021/07/27 06:30:35;;;;;;;14.63;7.00;;;;;;;20.95;78.28;100454.09;5056655;28;20235;-67
2021/07/27 06:33:01;;;;;;;9.70;7.23;;;;;;;21.19;77.60;100460.56;5072089;28;20198;-68
2021/07/27 06:35:26;;;;;;;9.23;7.10;;;;;;;21.25;76.20;100460.97;5072378;28;20536;-68
2021/07/27 06:37:51;;;;;;;11.33;7.43;;;;;;;21.17;77.98;100456.28;5055235;28;20195;-67
2021/07/27 06:40:17;;;;;;;8.00;6.47;;;;;;;21.35;76.90;100449.00;5056532;28;20186;-67
2021/07/27 06:42:42;;;;;;;8.90;6.60;;;;;;;21.18;77.21;100453.41;5056348;28;20218;-67
2021/07/27 06:45:09;;;;;;;8.10;6.90;;;;;;;21.25;76.72;100452.84;5056544;28;20229;-67
2021/07/27 06:47:34;;;;;;;15.57;10.33;;;;;;;21.21;77.14;100447.69;5055164;28;20547;-68
2021/07/27 06:49:59;;;;;;;11.43;7.30;;;;;;;20.91;78.13;100438.13;5054941;28;20175;-68
2021/07/27 06:52:25;;;;;;;10.53;7.17;;;;;;;21.01;78.16;100448.03;5056276;28;20199;-68
2021/07/27 06:54:50;;;;;;;9.37;7.93;;;;;;;20.85;79.27;100446.91;5056208;28;20190;-67
2021/07/27 06:57:16;;;;;;;10.97;7.33;;;;;;;20.64;80.33;100448.22;5056540;28;20234;-67
2021/07/27 06:59:41;;;;;;;9.20;7.43;;;;;;;20.46;82.68;100446.38;5056133;28;20179;-67
2021/07/27 07:02:06;;;;;;;7.47;6.70;;;;;;;20.68;81.85;100452.31;5055089;28;20199;-68
2021/07/27 07:04:32;;;;;;;11.17;7.47;;;;;;;20.50;82.14;100452.31;5054828;28;20172;-68
2021/07/27 07:06:57;;;;;;;7.90;6.87;;;;;;;20.71;80.51;100457.44;5056962;28;20172;-67
2021/07/27 07:09:24;;;;;;;8.37;7.20;;;;;;;20.67;81.06;100454.19;5056870;28;20512;-68
2021/07/27 07:11:49;;;;;;;10.07;7.83;;;;;;;20.76;79.74;100452.38;5056090;28;20267;-68
2021/07/27 07:14:14;;;;;;;8.60;7.23;;;;;;;20.62;81.46;100450.22;5056266;28;20207;-68
2021/07/27 07:16:40;;;;;;;11.77;9.10;;;;;;;20.75;81.12;100456.97;5055845;28;20632;-68
2021/07/27 07:19:05;;;;;;;12.77;7.57;;;;;;;21.11;79.93;100455.06;5071331;28;20195;-67
2021/07/27 07:21:30;;;;;;;10.13;6.83;;;;;;;21.21;80.29;100461.25;5055805;28;20214;-67
2021/07/27 07:23:55;;;;;;;11.10;6.27;;;;;;;21.37;80.05;100454.25;5054552;28;20200;-68
2021/07/27 07:26:21;;;;;;;11.73;7.00;;;;;;;21.68;78.01;100454.63;5071384;28;20544;-66
2021/07/27 07:28:46;;;;;;;9.13;6.47;;;;;;;21.64;76.45;100458.69;5055753;28;20297;-67
2021/07/27 07:31:16;;;;;;;9.30;6.87;;;;;;;21.83;76.13;100452.97;5071080;28;20180;-68
2021/07/27 07:33:41;;;;;;;7.17;6.47;;;;;;;21.85;75.77;100459.94;5038296;28;20245;-69
2021/07/27 07:36:13;;;;;;;6.90;6.20;;;;;;;22.12;74.40;100458.06;5071082;28;20179;-70
2021/07/27 07:38:40;;;;;;;8.17;6.33;;;;;;;22.19;75.10;100463.69;5054429;28;20202;-70
2021/07/27 07:41:09;;;;;;;7.50;5.93;;;;;;;22.35;74.37;100470.03;5071312;28;20257;-70
2021/07/27 07:43:35;;;;;;;8.47;6.43;;;;;;;22.65;73.20;100465.84;5071013;28;20675;-68
2021/07/27 07:46:00;;;;;;;7.93;6.13;;;;;;;22.61;74.25;100460.91;5055720;28;20190;-70
2021/07/27 07:48:26;;;;;;;6.70;5.93;;;;;;;22.57;74.00;100473.13;5053991;28;20180;-70
2021/07/27 07:50:51;;;;;;;6.63;5.70;;;;;;;22.85;71.88;100466.41;5070713;28;20466;-69
2021/07/27 07:53:16;;;;;;;7.07;6.00;;;;;;;22.60;72.77;100462.78;5055921;28;20207;-69
2021/07/27 07:55:42;;;;;;;6.57;5.33;;;;;;;22.83;71.91;100462.16;5055983;28;20624;-69
2021/07/27 07:58:07;;;;;;;9.63;5.00;;;;;;;23.02;70.03;100461.81;5073565;28;20203;-69
2021/07/27 08:00:32;;;;;;;6.67;5.10;;;;;;;23.11;70.41;100460.81;5056374;28;20176;-70
2021/07/27 08:03:02;;;;;;;5.57;4.90;;;;;;;23.29;69.51;100468.78;5055510;28;20513;-69
2021/07/27 08:05:27;;;;;;;6.93;5.03;;;;;;;23.32;67.35;100469.28;5058099;28;20651;-69
2021/07/27 08:07:52;;;;;;;6.03;4.77;;;;;;;23.39;67.78;100475.72;5056660;28;20176;-69
2021/07/27 08:10:17;;;;;;;5.63;5.07;;;;;;;22.99;69.37;100468.44;5055203;28;20186;-69
2021/07/27 08:12:46;;;;;;;9.23;5.10;;;;;;;23.46;68.53;100477.78;5055037;28;20226;-69
2021/07/27 08:15:11;;;;;;;7.03;5.20;;;;;;;23.27;67.79;100471.66;5054098;28;20176;-69
2021/07/27 08:17:36;;;;;;;6.43;4.97;;;;;;;23.35;67.09;100471.66;5055095;28;20199;-69
2021/07/27 08:20:03;;;;;;;8.57;4.67;;;;;;;23.56;66.61;100470.31;5054902;28;20176;-69
2021/07/27 08:22:29;;;;;;;5.13;4.63;;;;;;;23.74;66.05;100470.91;5055114;28;20199;-69
2021/07/27 08:24:54;;;;;;;7.27;4.63;;;;;;;23.79;65.79;100476.72;5055035;28;20310;-69
2021/07/27 08:27:19;;;;;;;8.43;4.60;;;;;;;23.72;65.86;100467.53;5054845;28;20194;-69
2021/07/27 08:29:44;;;;;;;7.70;4.17;;;;;;;23.79;65.84;100470.38;5054710;28;20231;-69
2021/07/27 08:32:10;;;;;;;11.00;4.53;;;;;;;24.00;63.87;100462.50;5053607;28;20204;-69
2021/07/27 08:34:36;;;;;;;5.83;3.90;;;;;;;24.05;64.47;100462.81;5053472;28;20651;-69
2021/07/27 08:37:02;;;;;;;6.17;3.60;;;;;;;24.31;60.97;100460.66;5054606;28;20175;-69
2021/07/27 08:39:28;;;;;;;5.03;3.33;;;;;;;24.35;60.87;100458.44;5053289;28;20191;-69
2021/07/27 08:41:54;;;;;;;4.87;3.40;;;;;;;24.20;60.33;100461.03;5054050;28;20627;-69
2021/07/27 08:44:20;;;;;;;5.10;3.23;;;;;;;24.44;59.75;100465.53;5053583;28;20648;-69
2021/07/27 08:46:46;;;;;;;3.70;3.03;;;;;;;24.58;56.70;100462.06;5054558;28;20172;-69
2021/07/27 08:49:16;;;;;;;9.63;3.37;;;;;;;24.66;56.37;100471.19;5053118;28;20177;-69
2021/07/27 08:51:43;;;;;;;4.30;3.13;;;;;;;24.67;56.36;100462.00;5054636;28;20175;-69
2021/07/27 08:54:09;;;;;;;7.57;3.17;;;;;;;24.80;56.50;100464.94;5053099;28;20233;-69
2021/07/27 08:56:43;;;;;;;3.03;2.50;;;;;;;24.74;53.99;100469.25;5054218;28;20211;-69
2021/07/27 08:59:09;;;;;;;2.87;2.10;;;;;;;25.03;53.85;100471.28;5069448;28;20190;-69
2021/07/27 09:01:36;;;;;;;2.83;2.30;;;;;;;24.43;54.07;100466.56;5069693;28;20184;-69
2021/07/27 09:04:01;;;;;;;4.40;3.00;;;;;;;24.38;57.36;100468.97;5052957;28;20199;-69
2021/07/27 09:06:27;;;;;;;4.30;3.47;;;;;;;24.49;53.52;100463.09;5054069;28;20172;-69
2021/07/27 09:09:09;;;;;;;4.70;3.27;;;;;;;24.77;52.62;100481.69;5053765;28;20179;-69
2021/07/27 09:11:48;;;;;;;3.73;3.20;;;;;;;24.85;51.15;100471.56;5052549;28;20199;-69
2021/07/27 09:14:16;;;;;;;5.90;2.87;;;;;;;25.02;51.32;100468.75;5053834;28;20705;-69
2021/07/27 09:16:49;;;;;;;3.20;2.57;;;;;;;25.06;51.41;100465.47;5052319;28;20187;-69
2021/07/27 09:19:14;;;;;;;5.27;2.60;;;;;;;24.90;53.04;100471.88;5052457;28;20188;-69
2021/07/27 09:21:42;;;;;;;5.60;4.37;;;;;;;25.18;51.79;100469.44;5052653;28;20190;-70
2021/07/27 09:24:10;;;;;;;14.70;11.13;;;;;;;25.32;51.90;100466.94;5052505;28;20198;-69
2021/07/27 09:26:36;;;;;;;5.80;3.43;;;;;;;25.42;51.33;100470.25;5052482;28;20637;-69
2021/07/27 09:29:03;;;;;;;5.37;4.37;;;;;;;25.53;51.79;100467.06;5053637;28;20172;-69
2021/07/27 09:31:28;;;;;;;6.70;4.90;;;;;;;25.64;49.97;100468.47;5068952;28;20187;-69
2021/07/27 09:33:54;;;;;;;3.27;2.67;;;;;;;25.66;49.39;100467.31;5053449;28;20559;-70
2021/07/27 09:36:26;;;;;;;4.03;3.00;;;;;;;25.65;49.11;100471.03;5069033;28;20176;-69
2021/07/27 09:39:04;;;;;;;3.40;2.77;;;;;;;25.63;48.30;100469.50;5068932;28;20207;-68
2021/07/27 09:41:30;;;;;;;4.03;2.90;;;;;;;25.70;49.42;100471.34;5068742;28;20225;-69
2021/07/27 09:43:59;;;;;;;3.30;2.60;;;;;;;25.93;49.30;100473.13;5068887;28;20195;-69
2021/07/27 09:46:25;;;;;;;4.60;3.10;;;;;;;26.08;49.39;100471.25;5053474;28;20187;-69
2021/07/27 09:48:51;;;;;;;3.07;2.73;;;;;;;26.08;49.23;100471.25;5068419;28;20540;-69
2021/07/27 09:51:17;;;;;;;3.53;2.70;;;;;;;26.18;49.95;100472.63;5052244;28;20176;-70
2021/07/27 09:53:44;;;;;;;3.03;2.73;;;;;;;26.17;48.83;100478.31;5051511;28;20205;-70
2021/07/27 09:56:09;;;;;;;2.70;2.13;;;;;;;25.73;46.72;100472.88;5053800;28;20203;-71
2021/07/27 09:58:35;;;;;;;5.97;2.83;;;;;;;26.19;49.66;100478.97;5052397;28;20717;-69
2021/07/27 10:01:12;;;;;;;4.63;2.50;;;;;;;25.89;47.79;100478.13;5053873;28;20214;-70
2021/07/27 10:03:46;;;;;;;2.53;2.07;;;;;;;25.86;48.04;100473.03;5068844;28;20202;-70
2021/07/27 10:06:12;;;;;;;3.13;2.80;;;;;;;26.14;46.05;100486.91;5053359;28;20163;-71
2021/07/27 10:08:37;;;;;;;5.83;2.80;;;;;;;25.90;46.92;100484.44;5052232;28;20185;-70
2021/07/27 10:11:06;;;;;;;8.47;2.47;;;;;;;25.77;47.48;100490.59;5053459;28;20254;-70
2021/07/27 10:13:37;;;;;;;3.13;2.50;;;;;;;25.81;47.02;100491.91;5097278;22;20230;-68
2021/07/27 10:16:02;;;;;;;3.27;2.60;;;;;;;25.86;47.78;100481.25;5091972;28;20174;-67
2021/07/27 10:18:32;;;;;;;6.37;2.30;;;;;;;26.00;47.84;100485.00;5093118;28;20190;-69
2021/07/27 10:21:24;;;;;;;2.93;2.57;;;;;;;25.94;44.63;100485.75;5074966;28;20178;-68
2021/07/27 10:23:53;;;;;;;2.63;2.20;;;;;;;26.07;46.19;100496.91;5075506;28;20194;-68
2021/07/27 10:26:33;;;;;;;2.83;2.50;;;;;;;26.24;46.69;100484.69;5095799;28;20188;-68
2021/07/27 10:28:59;;;;;;;3.03;2.60;;;;;;;26.33;48.00;100485.44;5078414;28;20166;-70
2021/07/27 10:31:50;;;;;;;5.33;2.60;;;;;;;26.52;45.93;100494.97;5096918;28;20212;-69
2021/07/27 10:34:15;;;;;;;4.37;2.47;;;;;;;26.52;45.01;100489.50;5093539;28;20248;-70
2021/07/27 10:36:43;;;;;;;5.77;2.67;;;;;;;26.47;46.72;100501.88;5093162;28;20202;-67
2021/07/27 10:39:16;;;;;;;2.80;2.50;;;;;;;26.72;47.23;100490.53;5092695;28;20251;-69
2021/07/27 10:41:46;;;;;;;3.13;2.47;;;;;;;26.39;48.07;100487.44;5091977;28;20216;-69
2021/07/27 10:44:13;;;;;;;3.43;2.83;;;;;;;26.43;48.55;100500.56;5093021;28;20277;-68
2021/07/27 10:46:43;;;;;;;3.53;2.90;;;;;;;25.98;49.10;100489.81;5091821;28;20171;-69
2021/07/27 10:49:17;;;;;;;6.50;2.87;;;;;;;25.90;49.43;100484.44;5091744;28;20572;-69
2021/07/27 10:51:45;;;;;;;5.90;2.60;;;;;;;26.95;46.94;100493.09;5093011;28;20175;-69
2021/07/27 10:54:12;;;;;;;3.53;3.10;;;;;;;26.22;49.22;100489.50;5092840;28;20186;-68
2021/07/27 10:56:37;;;;;;;5.60;3.73;;;;;;;26.62;48.29;100503.69;5091531;28;20516;-68
2021/07/27 10:59:03;;;;;;;5.13;4.10;;;;;;;27.09;46.58;100490.31;5091772;28;20220;-68
2021/07/27 11:01:30;;;;;;;6.87;3.70;;;;;;;26.86;45.90;100477.88;5091573;28;20174;-68
2021/07/27 11:04:07;;;;;;;3.87;3.20;;;;;;;27.58;44.54;100481.25;5092644;28;20201;-67
2021/07/27 11:06:32;;;;;;;3.00;2.40;;;;;;;28.13;43.33;100482.22;5094697;28;20162;-68
2021/07/27 11:09:01;;;;;;;4.03;2.53;;;;;;;29.02;42.21;100497.78;5096430;28;20170;-67
2021/07/27 11:11:26;;;;;;;3.63;2.50;;;;;;;29.27;42.02;100477.69;5096792;28;20206;-68
2021/07/27 11:13:53;;;;;;;3.13;2.53;;;;;;;29.65;40.71;100482.56;5096318;28;20220;-68
2021/07/27 11:16:18;;;;;;;7.43;3.20;;;;;;;30.24;40.63;100489.84;5077985;28;20169;-67
2021/07/27 11:18:44;;;;;;;2.42;2.22;;;;;;;31.13;37.41;100477.91;5095101;28;20198;-69
2021/07/27 11:21:10;;;;;;;7.65;3.25;;;;;;;33.28;33.76;100489.63;5096044;28;20601;-69
2021/07/27 11:23:35;;;;;;;8.95;2.20;;;;;;;31.99;34.48;100494.56;5096172;28;20194;-70
2021/07/27 11:26:02;;;;;;;3.00;2.60;;;;;;;34.40;30.59;100493.13;5096406;28;20228;-68
2021/07/27 11:28:38;;;;;;;3.25;2.10;;;;;;;33.52;30.81;100502.44;5094702;28;20642;-69
2021/07/27 11:31:15;;;;;;;5.88;2.28;;;;;;;33.43;32.09;100483.66;5094797;28;20711;-68
2021/07/27 11:33:47;;;;;;;5.70;2.05;;;;;;;34.15;30.74;100475.94;5094824;28;20225;-69
2021/07/27 11:36:25;;;;;;;3.92;2.00;;;;;;;35.48;29.16;100488.47;5095899;28;20151;-68
2021/07/27 11:38:51;;;;;;;3.55;2.20;;;;;;;35.07;29.42;100485.00;5077659;28;20186;-68